samedi 12 avril 2014

ALERTE SPOTTING 12/04/14

744 EC-KQC Pullmantur Air
   PLM602P/PLM6121  10h00/12h25

744 CN-RGA RAM
   AT644/AT749   12h15h/14h00
  AT740  21h30

320 F-GHQE Air Corsica (blanc avec titre)
   XK4501/XK4500  07h35/08h30

32A EC-LVP Vueling (couleur Linking Europe)
   VY8022/VY8023  21h10/21h45


Manque les prévisions/immats BE / certains AB / IB / AZ / TP / TU / BA / AH / KM
*** Heures en Local Time **
Prévisions matinales soumises à modifications de dernières minute. Voir le log du mois pour la version 'définitive' de la journée: http://www.airkalo.com/ORLYAVIATION/Logdumois.html

le TAF de la journée:

METAR: LFPO 120300Z 36004KT 9000 NSC 07/04 Q1019 NOSIG=
TAF LONG: LFPO 112300Z 1200/1306 03007KT CAVOK TEMPO 1209/1212 SCT035 BECMG
1214/1216 30005KT BECMG 1304/1306 BKN010=